Time;durP1;ratioP1;P1;durP2;ratioP2;P2;SDS_P1;SDS_P2;PMS_P1;PMS_P2;Temp;Humidity;BMP_temperature;BMP_pressure;BME280_temperature;BME280_humidity;BME280_pressure;Samples;Min_cycle;Max_cycle;Signal;HPM_P1;HPM_P2
2021/12/12 00:00:02;;;;;;;8.00;3.83;;;;;;;;;;4973218;28;20396;-67
2021/12/12 00:02:44;;;;;;;8.02;3.42;;;;;;;;;;4973475;28;20023;-67
2021/12/12 00:05:10;;;;;;;9.07;3.60;;;;;;;;;;4973709;28;20038;-68
2021/12/12 00:07:36;;;;;;;10.50;3.65;;;;;;;;;;4973133;28;20027;-67
2021/12/12 00:10:06;;;;;;;11.20;3.42;;;;;;;;;;4970931;28;20031;-68
2021/12/12 00:12:34;;;;;;;14.48;3.45;;;;;;;;;;4972838;28;20463;-68
2021/12/12 00:15:00;;;;;;;8.75;3.38;;;;;;;;;;4973117;28;20114;-68
2021/12/12 00:17:26;;;;;;;11.68;3.38;;;;;;;;;;4973042;28;20113;-68
2021/12/12 00:19:53;;;;;;;9.63;3.40;;;;;;;;;;4982026;28;20026;-67
2021/12/12 00:22:21;;;;;;;8.15;3.38;;;;;;;;;;4972937;28;20029;-67
2021/12/12 00:24:47;;;;;;;9.15;3.63;;;;;;;;;;4973147;28;20109;-65
2021/12/12 00:27:13;;;;;;;8.48;3.45;;;;;;;;;;4966207;28;20034;-68
2021/12/12 00:29:39;;;;;;;7.38;2.97;;;;;;;;;;4953380;28;20027;-68
2021/12/12 00:32:09;;;;;;;9.68;3.25;;;;;;;;;;4953501;28;20035;-69
2021/12/12 00:34:38;;;;;;;9.18;3.30;;;;;;;;;;4953119;28;20023;-68
2021/12/12 00:37:07;;;;;;;11.13;3.40;;;;;;;;;;4952057;28;20441;-68
2021/12/12 00:39:34;;;;;;;6.68;3.38;;;;;;;;;;4953248;28;20019;-68
2021/12/12 00:42:03;;;;;;;12.50;3.33;;;;;;;;;;4952149;28;20030;-67
2021/12/12 00:44:29;;;;;;;11.05;3.70;;;;;;;;;;4953155;28;20471;-67
2021/12/12 00:46:57;;;;;;;8.25;3.10;;;;;;;;;;4953281;28;20429;-67
2021/12/12 00:49:23;;;;;;;7.28;3.08;;;;;;;;;;4953006;28;20046;-68
2021/12/12 00:51:49;;;;;;;8.93;3.50;;;;;;;;;;4953222;28;20479;-69
2021/12/12 00:54:17;;;;;;;9.02;3.20;;;;;;;;;;4952541;28;20034;-67
2021/12/12 00:56:43;;;;;;;7.25;3.17;;;;;;;;;;4952672;28;20039;-68
2021/12/12 00:59:10;;;;;;;11.85;4.15;;;;;;;;;;4959757;28;20417;-67
2021/12/12 01:01:41;;;;;;;7.00;2.92;;;;;;;;;;4972258;28;20038;-68
2021/12/12 01:04:11;;;;;;;10.15;3.72;;;;;;;;;;4972014;28;20023;-68
2021/12/12 01:06:38;;;;;;;10.95;3.63;;;;;;;;;;4972641;28;20027;-68
2021/12/12 01:09:06;;;;;;;8.27;3.40;;;;;;;;;;4972037;28;20169;-68
2021/12/12 01:11:37;;;;;;;11.77;2.95;;;;;;;;;;4971343;28;20070;-67
2021/12/12 01:14:05;;;;;;;7.60;3.72;;;;;;;;;;4971687;28;20474;-67
2021/12/12 01:16:39;;;;;;;8.45;2.90;;;;;;;;;;4971923;28;20406;-68
2021/12/12 01:19:15;;;;;;;7.40;2.95;;;;;;;;;;5015744;28;20116;-68
2021/12/12 01:21:44;;;;;;;13.00;3.00;;;;;;;;;;5073788;28;20024;-68
2021/12/12 01:24:15;;;;;;;9.80;3.65;;;;;;;;;;5072025;28;20412;-67
2021/12/12 01:26:41;;;;;;;8.48;3.15;;;;;;;;;;5072584;28;20024;-68
2021/12/12 01:29:07;;;;;;;8.85;3.08;;;;;;;;;;5059440;28;20036;-67
2021/12/12 01:31:36;;;;;;;7.28;3.13;;;;;;;;;;4972180;28;20034;-68
2021/12/12 01:34:13;;;;;;;7.30;3.10;;;;;;;;;;4971867;28;20115;-69
2021/12/12 01:36:53;;;;;;;7.53;2.78;;;;;;;;;;4971919;28;20424;-68
2021/12/12 01:39:21;;;;;;;6.95;2.78;;;;;;;;;;4971723;28;20439;-68
2021/12/12 01:41:51;;;;;;;10.93;2.80;;;;;;;;;;4971944;28;20073;-68
2021/12/12 01:44:21;;;;;;;9.07;3.03;;;;;;;;;;4972112;28;20084;-67
2021/12/12 01:47:07;;;;;;;9.60;3.85;;;;;;;;;;4970683;28;20041;-68
2021/12/12 01:49:34;;;;;;;10.38;3.28;;;;;;;;;;4984759;28;20038;-69
2021/12/12 01:52:01;;;;;;;7.45;2.75;;;;;;;;;;4971982;28;20038;-69
2021/12/12 01:54:30;;;;;;;8.45;3.10;;;;;;;;;;4971892;28;20023;-69
2021/12/12 01:56:59;;;;;;;10.48;2.70;;;;;;;;;;4971665;28;20358;-68
2021/12/12 01:59:27;;;;;;;10.98;3.17;;;;;;;;;;4971483;28;20113;-68
2021/12/12 02:01:55;;;;;;;7.57;3.00;;;;;;;;;;4971503;28;20386;-68
2021/12/12 02:04:23;;;;;;;8.23;3.05;;;;;;;;;;4971445;28;20031;-69
2021/12/12 02:06:51;;;;;;;7.45;2.90;;;;;;;;;;4971406;28;20447;-68
2021/12/12 02:09:17;;;;;;;6.88;2.70;;;;;;;;;;4971405;28;20031;-69
2021/12/12 02:11:46;;;;;;;9.18;3.50;;;;;;;;;;4971121;28;20112;-68
2021/12/12 02:14:13;;;;;;;7.00;2.25;;;;;;;;;;4970349;28;20030;-69
2021/12/12 02:16:42;;;;;;;7.28;2.33;;;;;;;;;;4971323;28;20474;-68
2021/12/12 02:19:09;;;;;;;10.50;2.90;;;;;;;;;;5024573;28;20032;-69
2021/12/12 02:21:59;;;;;;;6.93;2.30;;;;;;;;;;5072946;28;20056;-69
2021/12/12 02:35:44;;;;;;;4.65;1.75;;;;;;;;;;4971201;28;20101;-69
2021/12/12 02:38:12;;;;;;;6.87;2.30;;;;;;;;;;4971232;28;20105;-69
2021/12/12 02:40:40;;;;;;;4.47;2.10;;;;;;;;;;4971250;28;20023;-69
2021/12/12 02:43:07;;;;;;;8.00;2.20;;;;;;;;;;4971256;28;20027;-68
2021/12/12 02:45:35;;;;;;;4.57;2.20;;;;;;;;;;4970354;28;20122;-70
2021/12/12 02:48:05;;;;;;;6.57;2.05;;;;;;;;;;4971005;28;20034;-68
2021/12/12 02:50:51;;;;;;;3.80;1.98;;;;;;;;;;4970717;28;20494;-68
2021/12/12 02:53:19;;;;;;;5.88;2.20;;;;;;;;;;4971388;28;20034;-68
2021/12/12 02:55:47;;;;;;;5.70;1.90;;;;;;;;;;4970993;28;20023;-68
2021/12/12 02:58:16;;;;;;;5.25;2.10;;;;;;;;;;4970678;28;20101;-68
2021/12/12 03:00:45;;;;;;;8.27;2.63;;;;;;;;;;4971151;28;20088;-69
2021/12/12 03:03:12;;;;;;;3.70;1.85;;;;;;;;;;4969673;28;20030;-68
2021/12/12 03:05:41;;;;;;;6.32;2.20;;;;;;;;;;4971139;28;20050;-69
2021/12/12 03:08:07;;;;;;;7.50;2.10;;;;;;;;;;4971034;28;20111;-69
2021/12/12 03:10:35;;;;;;;10.98;2.20;;;;;;;;;;4970651;28;20041;-67
2021/12/12 03:13:01;;;;;;;6.65;2.22;;;;;;;;;;4969771;28;20027;-69
2021/12/12 03:15:29;;;;;;;3.85;2.03;;;;;;;;;;4970960;28;20451;-69
2021/12/12 03:17:56;;;;;;;3.45;1.80;;;;;;;;;;4967821;28;20423;-68
2021/12/12 03:20:34;;;;;;;4.50;2.22;;;;;;;;;;5070909;28;20024;-69
2021/12/12 03:23:15;;;;;;;4.57;2.20;;;;;;;;;;5074654;28;20068;-69
2021/12/12 03:25:42;;;;;;;4.18;2.42;;;;;;;;;;5075800;28;20056;-69
2021/12/12 03:28:09;;;;;;;6.20;2.30;;;;;;;;;;5075846;28;20452;-70
2021/12/12 03:30:36;;;;;;;8.02;2.45;;;;;;;;;;5074205;28;20040;-69
2021/12/12 03:33:03;;;;;;;4.40;2.20;;;;;;;;;;5076117;28;20028;-69
2021/12/12 03:35:29;;;;;;;3.55;2.05;;;;;;;;;;4987600;28;20027;-68
2021/12/12 03:37:55;;;;;;;3.83;2.30;;;;;;;;;;4953294;28;20031;-69
2021/12/12 03:40:23;;;;;;;7.32;2.60;;;;;;;;;;4953307;28;20023;-68
2021/12/12 03:42:51;;;;;;;5.53;2.38;;;;;;;;;;4954630;28;20031;-68
2021/12/12 03:45:18;;;;;;;8.35;2.80;;;;;;;;;;4954150;28;20045;-69
2021/12/12 03:47:50;;;;;;;6.22;2.78;;;;;;;;;;4954589;28;20031;-69
2021/12/12 03:50:20;;;;;;;3.78;2.42;;;;;;;;;;4954257;28;20031;-68
2021/12/12 03:52:47;;;;;;;5.03;2.75;;;;;;;;;;4953239;28;20031;-68
2021/12/12 03:55:13;;;;;;;4.75;2.42;;;;;;;;;;4953962;28;20019;-68
2021/12/12 03:57:39;;;;;;;7.82;2.60;;;;;;;;;;4954152;28;20058;-69
2021/12/12 04:00:09;;;;;;;6.32;2.45;;;;;;;;;;4952864;28;20114;-69
2021/12/12 04:02:35;;;;;;;4.82;2.50;;;;;;;;;;4952936;28;20471;-69
2021/12/12 04:05:01;;;;;;;6.82;2.47;;;;;;;;;;4954047;28;20102;-68
2021/12/12 04:07:29;;;;;;;5.30;2.05;;;;;;;;;;4954104;28;20042;-69
2021/12/12 04:09:56;;;;;;;4.63;2.17;;;;;;;;;;4953855;29;20367;-68
2021/12/12 04:12:23;;;;;;;6.78;3.00;;;;;;;;;;4953917;28;20047;-70
2021/12/12 04:14:51;;;;;;;4.05;2.65;;;;;;;;;;4953581;28;20054;-66
2021/12/12 04:17:19;;;;;;;6.28;2.42;;;;;;;;;;4953696;28;20031;-65
2021/12/12 04:19:46;;;;;;;12.23;2.80;;;;;;;;;;4976998;28;20068;-65
2021/12/12 04:22:12;;;;;;;11.10;2.60;;;;;;;;;;4972861;28;20072;-64
2021/12/12 04:24:41;;;;;;;11.45;2.97;;;;;;;;;;4971649;28;20026;-65
2021/12/12 04:27:07;;;;;;;4.10;2.47;;;;;;;;;;4973076;28;20455;-67
2021/12/12 04:29:36;;;;;;;6.80;2.50;;;;;;;;;;4972603;28;20059;-65
2021/12/12 04:32:13;;;;;;;5.93;2.65;;;;;;;;;;4972722;28;20035;-65
2021/12/12 04:34:41;;;;;;;5.65;2.15;;;;;;;;;;4970366;28;20026;-65
2021/12/12 04:37:08;;;;;;;7.35;2.35;;;;;;;;;;4952966;28;20032;-65
2021/12/12 04:39:38;;;;;;;8.52;2.63;;;;;;;;;;4953281;28;20110;-65
2021/12/12 04:42:17;;;;;;;5.53;2.35;;;;;;;;;;4953105;28;20081;-65
2021/12/12 04:44:43;;;;;;;12.82;2.67;;;;;;;;;;4952066;28;20387;-66
2021/12/12 04:50:05;;;;;;;4.30;2.50;;;;;;;;;;4953083;29;20438;-66
2021/12/12 04:52:46;;;;;;;7.90;2.83;;;;;;;;;;4952940;28;20497;-65
2021/12/12 04:55:12;;;;;;;9.85;3.75;;;;;;;;;;4962917;28;20762;-65
2021/12/12 04:57:48;;;;;;;5.63;3.10;;;;;;;;;;4971925;28;20482;-65
2021/12/12 05:00:20;;;;;;;5.07;2.75;;;;;;;;;;4970446;28;20035;-65
2021/12/12 05:02:56;;;;;;;5.43;2.70;;;;;;;;;;4972330;28;20035;-66
2021/12/12 05:05:25;;;;;;;8.48;2.85;;;;;;;;;;4972450;28;20022;-65
2021/12/12 05:07:54;;;;;;;6.35;2.97;;;;;;;;;;4972183;28;20023;-67
2021/12/12 05:10:37;;;;;;;7.38;2.88;;;;;;;;;;4971988;28;20034;-68
2021/12/12 05:13:07;;;;;;;4.28;2.25;;;;;;;;;;4972102;28;20047;-68
2021/12/12 05:15:36;;;;;;;4.78;2.78;;;;;;;;;;4972292;28;20496;-67
2021/12/12 05:18:04;;;;;;;7.35;3.03;;;;;;;;;;4970703;28;20038;-66
2021/12/12 05:20:32;;;;;;;6.13;2.90;;;;;;;;;;4952685;28;20471;-67
2021/12/12 05:23:00;;;;;;;4.22;2.75;;;;;;;;;;4952778;28;20475;-69
2021/12/12 05:25:29;;;;;;;5.68;3.30;;;;;;;;;;4952802;28;20027;-67
2021/12/12 05:27:56;;;;;;;5.13;3.33;;;;;;;;;;4952667;28;20023;-68
2021/12/12 05:30:27;;;;;;;7.18;3.15;;;;;;;;;;4952179;28;20071;-69
2021/12/12 05:32:54;;;;;;;7.68;3.15;;;;;;;;;;4952399;28;20039;-68
2021/12/12 05:35:23;;;;;;;4.22;2.95;;;;;;;;;;4952370;29;20023;-68
2021/12/12 05:37:49;;;;;;;8.50;3.28;;;;;;;;;;4952400;28;20552;-69
2021/12/12 05:40:16;;;;;;;6.65;3.42;;;;;;;;;;4952420;28;20024;-67
2021/12/12 05:42:42;;;;;;;6.00;3.30;;;;;;;;;;4950659;28;20031;-65
2021/12/12 05:45:09;;;;;;;7.05;3.90;;;;;;;;;;4952189;28;20055;-68
2021/12/12 05:47:35;;;;;;;11.90;3.58;;;;;;;;;;4952428;28;20031;-68
2021/12/12 05:50:02;;;;;;;7.78;3.85;;;;;;;;;;4952568;28;20027;-67
2021/12/12 05:52:28;;;;;;;6.32;3.22;;;;;;;;;;4950727;28;20042;-68
2021/12/12 05:54:54;;;;;;;9.55;3.95;;;;;;;;;;4952243;29;20023;-67
2021/12/12 05:57:24;;;;;;;13.27;3.65;;;;;;;;;;4952189;28;20359;-68
2021/12/12 05:59:51;;;;;;;12.45;3.88;;;;;;;;;;4952028;28;20020;-63
2021/12/12 06:02:18;;;;;;;12.00;4.35;;;;;;;;;;4951944;29;20039;-63
2021/12/12 06:04:44;;;;;;;12.98;4.50;;;;;;;;;;4952133;28;20024;-64
2021/12/12 06:07:14;;;;;;;9.27;4.55;;;;;;;;;;4950479;28;20030;-63
2021/12/12 06:09:40;;;;;;;9.65;4.57;;;;;;;;;;4952091;29;20447;-65
2021/12/12 06:12:06;;;;;;;7.93;4.15;;;;;;;;;;4965523;28;20054;-63
2021/12/12 06:14:33;;;;;;;12.32;4.65;;;;;;;;;;4971207;28;20423;-63
2021/12/12 06:17:06;;;;;;;9.32;5.22;;;;;;;;;;4951780;28;20110;-63
2021/12/12 06:19:33;;;;;;;9.27;5.07;;;;;;;;;;4988968;28;20045;-63
2021/12/12 06:22:00;;;;;;;11.52;5.07;;;;;;;;;;4954821;28;20054;-62
2021/12/12 06:24:27;;;;;;;10.65;5.30;;;;;;;;;;4960508;28;20031;-63
2021/12/12 06:26:54;;;;;;;10.88;5.18;;;;;;;;;;4962282;28;20403;-66
2021/12/12 06:29:20;;;;;;;10.68;5.80;;;;;;;;;;4958983;28;20077;-64
2021/12/12 06:31:49;;;;;;;10.32;4.95;;;;;;;;;;4961861;28;20035;-64
2021/12/12 06:34:16;;;;;;;10.38;5.05;;;;;;;;;;4959396;28;20019;-65
2021/12/12 06:36:42;;;;;;;10.30;5.70;;;;;;;;;;4962204;28;20034;-66
2021/12/12 06:39:09;;;;;;;12.95;5.57;;;;;;;;;;4962428;28;20069;-64
2021/12/12 06:41:36;;;;;;;10.65;5.50;;;;;;;;;;4959357;28;20035;-65
2021/12/12 06:44:09;;;;;;;12.10;5.03;;;;;;;;;;4959542;28;20023;-64
2021/12/12 06:46:36;;;;;;;13.73;4.80;;;;;;;;;;4958636;28;20036;-65
2021/12/12 06:49:04;;;;;;;12.25;4.85;;;;;;;;;;4960788;28;20023;-65
2021/12/12 06:51:32;;;;;;;14.32;5.25;;;;;;;;;;4962098;28;20042;-63
2021/12/12 06:53:58;;;;;;;13.55;5.75;;;;;;;;;;4955299;28;20801;-64
2021/12/12 06:56:26;;;;;;;11.40;4.63;;;;;;;;;;4963723;28;20104;-64
2021/12/12 06:58:52;;;;;;;11.13;5.13;;;;;;;;;;4961612;28;20474;-72
2021/12/12 07:01:23;;;;;;;16.60;5.38;;;;;;;;;;4971097;28;20467;-76
2021/12/12 07:03:50;;;;;;;14.27;4.90;;;;;;;;;;4967145;28;20105;-75
2021/12/12 07:06:21;;;;;;;10.77;4.68;;;;;;;;;;4956241;28;20031;-75
2021/12/12 07:08:47;;;;;;;14.10;5.05;;;;;;;;;;4972546;28;20028;-75
2021/12/12 07:11:21;;;;;;;13.02;5.30;;;;;;;;;;4957464;28;20040;-71
2021/12/12 07:13:48;;;;;;;8.70;4.68;;;;;;;;;;4954729;28;20023;-74
2021/12/12 07:16:14;;;;;;;15.98;5.53;;;;;;;;;;4969727;28;20054;-72
2021/12/12 07:18:40;;;;;;;11.88;4.88;;;;;;;;;;4971916;28;20039;-69
2021/12/12 07:21:10;;;;;;;10.45;5.05;;;;;;;;;;4965290;28;20168;-69
2021/12/12 07:23:36;;;;;;;10.50;5.30;;;;;;;;;;4968779;28;20038;-70
2021/12/12 07:26:05;;;;;;;17.88;5.60;;;;;;;;;;4969618;28;20037;-70
2021/12/12 07:28:32;;;;;;;9.27;4.93;;;;;;;;;;4965018;28;20019;-70
2021/12/12 07:31:00;;;;;;;10.70;5.07;;;;;;;;;;4962388;28;20118;-69
2021/12/12 07:33:27;;;;;;;15.98;5.80;;;;;;;;;;4959284;28;20038;-70
2021/12/12 07:35:58;;;;;;;14.02;5.47;;;;;;;;;;4966573;28;20049;-69
2021/12/12 07:38:24;;;;;;;15.90;5.90;;;;;;;;;;4967581;28;20849;-69
2021/12/12 07:40:50;;;;;;;15.20;6.03;;;;;;;;;;4981171;28;20031;-70
2021/12/12 07:43:16;;;;;;;20.77;5.90;;;;;;;;;;4960744;28;20029;-70
2021/12/12 07:45:42;;;;;;;11.82;4.82;;;;;;;;;;4957122;28;20034;-68
2021/12/12 07:48:09;;;;;;;18.52;4.97;;;;;;;;;;4965177;28;20110;-67
2021/12/12 07:50:35;;;;;;;11.45;5.18;;;;;;;;;;4964594;28;20047;-67
2021/12/12 07:53:01;;;;;;;20.33;5.57;;;;;;;;;;4959454;28;20396;-68
2021/12/12 07:55:27;;;;;;;17.67;5.00;;;;;;;;;;4961909;28;20516;-67
2021/12/12 07:57:53;;;;;;;13.25;4.95;;;;;;;;;;4977716;28;20113;-67
2021/12/12 08:00:23;;;;;;;16.42;5.35;;;;;;;;;;4964972;28;20027;-68
2021/12/12 08:02:51;;;;;;;14.27;4.43;;;;;;;;;;4962226;28;20102;-67
2021/12/12 08:05:18;;;;;;;12.95;4.90;;;;;;;;;;4966413;28;20031;-66
2021/12/12 08:07:44;;;;;;;23.83;4.97;;;;;;;;;;4966411;28;20027;-67
2021/12/12 08:10:12;;;;;;;14.48;4.38;;;;;;;;;;4959652;28;20035;-66
2021/12/12 08:12:38;;;;;;;16.98;4.70;;;;;;;;;;4961531;28;20051;-69
2021/12/12 08:15:06;;;;;;;27.92;5.20;;;;;;;;;;4960902;28;20463;-68
2021/12/12 08:17:32;;;;;;;13.23;4.68;;;;;;;;;;4957673;28;20031;-68
2021/12/12 08:19:59;;;;;;;17.25;4.95;;;;;;;;;;5014284;28;20118;-70
2021/12/12 08:22:26;;;;;;;10.23;4.65;;;;;;;;;;4953402;28;20032;-68
2021/12/12 08:24:53;;;;;;;11.85;4.50;;;;;;;;;;4960114;28;20043;-68
2021/12/12 08:27:19;;;;;;;12.13;4.78;;;;;;;;;;4967025;28;20029;-68
2021/12/12 08:29:45;;;;;;;16.52;4.65;;;;;;;;;;4959176;28;20110;-66
2021/12/12 08:32:14;;;;;;;11.68;4.93;;;;;;;;;;4968367;28;20062;-70
2021/12/12 08:34:40;;;;;;;10.75;4.53;;;;;;;;;;4964645;28;20015;-69
2021/12/12 08:37:06;;;;;;;11.02;4.68;;;;;;;;;;4959962;28;20027;-67
2021/12/12 08:39:33;;;;;;;13.48;4.68;;;;;;;;;;4960898;28;20074;-69
2021/12/12 08:42:00;;;;;;;14.07;4.75;;;;;;;;;;4965105;28;20030;-69
2021/12/12 08:44:27;;;;;;;11.57;4.72;;;;;;;;;;4968061;28;20033;-68
2021/12/12 08:46:54;;;;;;;10.73;4.50;;;;;;;;;;4965270;28;20030;-69
2021/12/12 08:49:22;;;;;;;9.60;4.57;;;;;;;;;;4961645;28;20027;-70
2021/12/12 08:51:51;;;;;;;12.52;5.03;;;;;;;;;;4954713;28;20031;-74
2021/12/12 08:54:23;;;;;;;10.50;4.50;;;;;;;;;;4954639;28;20113;-71
2021/12/12 08:56:51;;;;;;;12.50;3.88;;;;;;;;;;4967238;28;20347;-71
2021/12/12 08:59:24;;;;;;;15.63;4.25;;;;;;;;;;4964080;28;20034;-71
2021/12/12 09:01:52;;;;;;;12.38;4.22;;;;;;;;;;4952430;28;20023;-73
2021/12/12 09:04:18;;;;;;;11.57;3.65;;;;;;;;;;4957672;28;20125;-72
2021/12/12 09:07:05;;;;;;;9.35;3.85;;;;;;;;;;4971088;28;20073;-71
2021/12/12 09:09:38;;;;;;;9.93;3.72;;;;;;;;;;4959557;28;20092;-70
2021/12/12 09:12:04;;;;;;;8.27;3.83;;;;;;;;;;4955142;28;20066;-77
2021/12/12 09:14:46;;;;;;;12.23;3.42;;;;;;;;;;4951853;28;20110;-72
2021/12/12 09:17:31;;;;;;;5.80;3.28;;;;;;;;;;4956640;28;20483;-72
2021/12/12 09:20:02;;;;;;;8.20;2.88;;;;;;;;;;4956397;28;20038;-72
2021/12/12 09:22:40;;;;;;;8.48;3.22;;;;;;;;;;4955324;28;20027;-71
2021/12/12 09:25:22;;;;;;;5.68;2.60;;;;;;;;;;4957295;28;20039;-72
2021/12/12 09:28:00;;;;;;;4.45;2.22;;;;;;;;;;4952681;28;20467;-73
2021/12/12 09:30:27;;;;;;;5.63;2.90;;;;;;;;;;4961960;28;20031;-69
2021/12/12 09:32:55;;;;;;;7.10;2.70;;;;;;;;;;4971319;28;20122;-68
2021/12/12 09:35:38;;;;;;;5.55;2.33;;;;;;;;;;4971914;28;20027;-70
2021/12/12 09:38:07;;;;;;;6.13;2.22;;;;;;;;;;4966990;28;20038;-68
2021/12/12 09:40:51;;;;;;;6.78;2.33;;;;;;;;;;4952457;28;20035;-69
2021/12/12 09:43:26;;;;;;;6.13;2.83;;;;;;;;;;4952709;29;20062;-66
2021/12/12 09:45:52;;;;;;;7.78;2.63;;;;;;;;;;4953246;28;20023;-69
2021/12/12 09:51:43;;;;;;;6.55;2.50;;;;;;;;;;4964775;28;20058;-70
2021/12/12 09:54:18;;;;;;;19.52;2.65;;;;;;;;;;4973508;28;20031;-76
2021/12/12 09:56:50;;;;;;;11.02;2.70;;;;;;;;;;4973040;28;20084;-74
2021/12/12 09:59:39;;;;;;;18.23;2.70;;;;;;;;;;4973123;28;20033;-73
2021/12/12 10:02:08;;;;;;;18.17;3.00;;;;;;;;;;4970451;28;20117;-63
2021/12/12 10:04:57;;;;;;;21.48;3.00;;;;;;;;;;4971357;28;20042;-75
2021/12/12 10:07:35;;;;;;;22.60;2.60;;;;;;;;;;4962592;28;20040;-81
2021/12/12 10:10:06;;;;;;;17.63;2.58;;;;;;;;;;4955093;29;20031;-81
2021/12/12 10:12:39;;;;;;;12.20;2.45;;;;;;;;;;4966314;28;20406;-80
2021/12/12 10:15:11;;;;;;;9.57;2.40;;;;;;;;;;4974015;28;20058;-77
2021/12/12 10:17:46;;;;;;;16.55;2.63;;;;;;;;;;4957526;28;20039;-68
2021/12/12 10:20:17;;;;;;;11.32;2.50;;;;;;;;;;4953261;29;20076;-73
2021/12/12 10:23:02;;;;;;;6.55;1.95;;;;;;;;;;4954317;28;20409;-76
2021/12/12 10:25:32;;;;;;;10.68;1.98;;;;;;;;;;4954351;28;20027;-76
2021/12/12 10:28:11;;;;;;;21.00;2.15;;;;;;;;;;4955301;28;20039;-76
2021/12/12 10:30:44;;;;;;;6.82;1.90;;;;;;;;;;4972361;28;20038;-74
2021/12/12 10:33:19;;;;;;;6.85;1.73;;;;;;;;;;4978008;28;20027;-77
2021/12/12 10:35:58;;;;;;;11.65;1.70;;;;;;;;;;4958225;28;20180;-75
2021/12/12 10:38:36;;;;;;;7.22;1.63;;;;;;;;;;4958738;29;20030;-77
2021/12/12 10:41:06;;;;;;;8.10;1.80;;;;;;;;;;4959025;28;20027;-69
2021/12/12 10:43:37;;;;;;;5.80;1.70;;;;;;;;;;4956772;28;20087;-71
2021/12/12 10:46:08;;;;;;;9.38;1.58;;;;;;;;;;4954806;29;20027;-71
2021/12/12 10:48:52;;;;;;;12.05;1.67;;;;;;;;;;4955068;29;20027;-69
2021/12/12 10:51:20;;;;;;;7.53;1.63;;;;;;;;;;4954674;29;20558;-69
2021/12/12 10:54:02;;;;;;;5.65;1.88;;;;;;;;;;4954726;29;20092;-65
2021/12/12 10:56:36;;;;;;;3.92;1.80;;;;;;;;;;4954798;29;20050;-66
2021/12/12 10:59:21;;;;;;;8.40;2.08;;;;;;;;;;4971222;28;20092;-67
2021/12/12 11:01:48;;;;;;;6.20;1.60;;;;;;;;;;4990782;28;20472;-65
2021/12/12 11:04:28;;;;;;;11.40;1.92;;;;;;;;;;4974427;28;20027;-73
2021/12/12 11:07:00;;;;;;;6.53;1.70;;;;;;;;;;4993291;28;20026;-69
2021/12/12 11:09:38;;;;;;;5.80;1.63;;;;;;;;;;4969791;28;20024;-75
2021/12/12 11:12:13;;;;;;;5.55;1.80;;;;;;;;;;4970376;28;20052;-73
2021/12/12 11:14:48;;;;;;;8.20;1.55;;;;;;;;;;4980770;28;20534;-74
2021/12/12 11:17:19;;;;;;;5.72;1.60;;;;;;;;;;4989628;28;20054;-73
2021/12/12 11:20:06;;;;;;;5.65;1.48;;;;;;;;;;4963726;28;20059;-65
2021/12/12 11:22:38;;;;;;;4.35;1.40;;;;;;;;;;4969954;28;20390;-66
2021/12/12 11:25:07;;;;;;;5.68;1.65;;;;;;;;;;4961346;28;20110;-67
2021/12/12 11:27:39;;;;;;;6.97;1.90;;;;;;;;;;4961015;28;20027;-65
2021/12/12 11:30:09;;;;;;;5.65;1.58;;;;;;;;;;4968499;28;20043;-65
2021/12/12 11:32:35;;;;;;;10.52;1.52;;;;;;;;;;4962739;28;20039;-65
2021/12/12 11:35:02;;;;;;;4.20;1.60;;;;;;;;;;4962486;28;20031;-64
2021/12/12 11:37:44;;;;;;;5.25;1.58;;;;;;;;;;4961205;28;20058;-66
2021/12/12 11:40:19;;;;;;;4.25;2.00;;;;;;;;;;4967805;28;20035;-65
2021/12/12 11:42:45;;;;;;;5.63;2.40;;;;;;;;;;4970418;28;20077;-65
2021/12/12 11:45:29;;;;;;;13.80;3.50;;;;;;;;;;4970036;28;20035;-65
2021/12/12 11:48:00;;;;;;;7.32;3.42;;;;;;;;;;4954982;28;20129;-60
2021/12/12 11:50:46;;;;;;;7.57;3.05;;;;;;;;;;4976793;28;20105;-71
2021/12/12 11:53:29;;;;;;;7.57;3.33;;;;;;;;;;4954906;28;20493;-68
2021/12/12 11:55:56;;;;;;;;;;;;;;;;;;4954702;28;20038;-70
2021/12/12 11:58:48;;;;;;;11.68;2.78;;;;;;;;;;4962317;28;19971;-64
2021/12/12 12:01:14;;;;;;;14.63;3.20;;;;;;;;;;4982834;28;20114;-67
2021/12/12 12:03:58;;;;;;;10.48;2.80;;;;;;;;;;4964209;28;20106;-68
2021/12/12 12:06:30;;;;;;;10.10;3.20;;;;;;;;;;4971258;28;20092;-67
2021/12/12 12:09:02;;;;;;;6.22;2.22;;;;;;;;;;4973127;28;20088;-68
2021/12/12 12:11:37;;;;;;;10.95;2.80;;;;;;;;;;4975095;28;20092;-67
2021/12/12 12:14:09;;;;;;;9.43;2.60;;;;;;;;;;5005612;28;20382;-64
2021/12/12 12:16:35;;;;;;;;;;;;;;;;;;4961085;28;20028;-67
2021/12/12 12:19:07;;;;;;;6.68;2.33;;;;;;;;;;4959138;28;19917;-67
2021/12/12 12:21:52;;;;;;;5.22;2.17;;;;;;;;;;4971971;28;20019;-66
2021/12/12 12:24:26;;;;;;;4.10;2.10;;;;;;;;;;4971795;28;20080;-67
2021/12/12 12:27:13;;;;;;;6.85;2.65;;;;;;;;;;4972612;28;20145;-68
2021/12/12 12:29:44;;;;;;;5.80;2.00;;;;;;;;;;4965640;28;20097;-66
2021/12/12 12:32:23;;;;;;;7.80;2.20;;;;;;;;;;4969779;28;20042;-64
2021/12/12 12:35:15;;;;;;;4.07;1.80;;;;;;;;;;4955013;28;20063;-66
2021/12/12 12:38:00;;;;;;;5.15;1.70;;;;;;;;;;5000069;28;20391;-60
2021/12/12 12:40:36;;;;;;;4.60;2.20;;;;;;;;;;4953001;28;20031;-66
2021/12/12 12:43:20;;;;;;;4.88;1.83;;;;;;;;;;4952900;29;20028;-64
2021/12/12 12:46:05;;;;;;;4.05;1.60;;;;;;;;;;4952771;29;20038;-61
2021/12/12 12:48:50;;;;;;;13.68;2.42;;;;;;;;;;4952612;29;20097;-64
2021/12/12 12:51:22;;;;;;;36.08;2.53;;;;;;;;;;4960687;28;20046;-60
2021/12/12 12:54:07;;;;;;;42.58;2.85;;;;;;;;;;4972111;28;20066;-65
2021/12/12 12:56:32;;;;;;;46.75;3.60;;;;;;;;;;4971857;28;20069;-59
2021/12/12 12:59:23;;;;;;;43.38;2.50;;;;;;;;;;4971868;28;20031;-60
2021/12/12 13:02:12;;;;;;;33.85;2.85;;;;;;;;;;4972139;28;20038;-65
2021/12/12 13:04:48;;;;;;;15.38;2.28;;;;;;;;;;4972574;28;20048;-65
2021/12/12 13:07:18;;;;;;;26.10;2.97;;;;;;;;;;4972355;28;20157;-68
2021/12/12 13:10:03;;;;;;;16.52;2.40;;;;;;;;;;4971502;28;20386;-72
2021/12/12 13:12:34;;;;;;;12.57;1.90;;;;;;;;;;4992264;28;20036;-71
2021/12/12 13:15:12;;;;;;;11.80;1.80;;;;;;;;;;5074096;28;20020;-65
2021/12/12 13:17:41;;;;;;;19.65;2.35;;;;;;;;;;5073505;28;20020;-66
2021/12/12 13:20:11;;;;;;;16.25;3.50;;;;;;;;;;5064414;28;20027;-71
2021/12/12 13:22:49;;;;;;;8.18;1.80;;;;;;;;;;5073445;28;20111;-65
2021/12/12 13:25:18;;;;;;;17.20;2.40;;;;;;;;;;5074015;28;20025;-67
2021/12/12 13:28:10;;;;;;;15.90;1.60;;;;;;;;;;5003507;28;20080;-62
2021/12/12 13:30:42;;;;;;;19.25;2.05;;;;;;;;;;4983449;28;20043;-68
2021/12/12 13:33:27;;;;;;;16.20;1.90;;;;;;;;;;4994045;28;20482;-62
2021/12/12 13:36:11;;;;;;;8.18;1.60;;;;;;;;;;4967441;28;20031;-67
2021/12/12 13:38:46;;;;;;;20.27;1.52;;;;;;;;;;4995054;28;20161;-64
2021/12/12 13:41:16;;;;;;;4.72;1.45;;;;;;;;;;4958134;28;20034;-65
2021/12/12 13:43:51;;;;;;;9.75;1.30;;;;;;;;;;4954911;28;20019;-64
2021/12/12 13:46:26;;;;;;;13.30;1.65;;;;;;;;;;4963314;28;20022;-64
2021/12/12 13:49:11;;;;;;;14.05;1.33;;;;;;;;;;4967184;28;20035;-69
2021/12/12 13:51:40;;;;;;;8.05;1.38;;;;;;;;;;4964193;28;20122;-64
2021/12/12 13:54:07;;;;;;;7.57;1.55;;;;;;;;;;4957316;28;20062;-64
2021/12/12 13:56:35;;;;;;;10.00;1.20;;;;;;;;;;4963393;28;20030;-64
2021/12/12 13:59:04;;;;;;;16.50;1.70;;;;;;;;;;4969818;28;20426;-64
2021/12/12 14:01:53;;;;;;;7.22;1.67;;;;;;;;;;4962134;28;20023;-67
2021/12/12 14:04:38;;;;;;;7.93;1.15;;;;;;;;;;4971382;28;20039;-71
2021/12/12 14:07:05;;;;;;;10.02;1.27;;;;;;;;;;4952692;29;20050;-70
2021/12/12 14:09:31;;;;;;;12.48;1.75;;;;;;;;;;4951225;28;20019;-72
2021/12/12 14:11:59;;;;;;;8.30;1.38;;;;;;;;;;4952064;28;20051;-69
2021/12/12 14:14:44;;;;;;;5.97;1.25;;;;;;;;;;4955383;28;20611;-66
2021/12/12 14:17:14;;;;;;;8.15;1.15;;;;;;;;;;4967178;28;20145;-69
2021/12/12 14:19:47;;;;;;;9.93;1.45;;;;;;;;;;4982776;28;20390;-66
2021/12/12 14:22:13;;;;;;;5.45;1.30;;;;;;;;;;4960403;28;20031;-66
2021/12/12 14:24:46;;;;;;;6.85;1.17;;;;;;;;;;4979075;28;20029;-66
2021/12/12 14:27:13;;;;;;;12.13;1.25;;;;;;;;;;4984973;28;20039;-67
2021/12/12 14:29:47;;;;;;;8.27;1.45;;;;;;;;;;4960487;28;20027;-69
2021/12/12 14:32:25;;;;;;;10.60;1.35;;;;;;;;;;4964819;28;20039;-68
2021/12/12 14:34:51;;;;;;;6.38;1.33;;;;;;;;;;4960998;28;20055;-67
2021/12/12 14:37:19;;;;;;;6.53;1.27;;;;;;;;;;4960303;28;20062;-65
2021/12/12 14:39:47;;;;;;;7.90;1.15;;;;;;;;;;4961772;28;20025;-67
2021/12/12 14:42:26;;;;;;;6.13;1.20;;;;;;;;;;4957082;28;20352;-68
2021/12/12 14:44:57;;;;;;;8.13;1.08;;;;;;;;;;4962329;28;20023;-65
2021/12/12 14:47:30;;;;;;;7.18;0.95;;;;;;;;;;4960114;28;20062;-68
2021/12/12 14:49:57;;;;;;;3.10;0.80;;;;;;;;;;4960899;28;20045;-69
2021/12/12 14:52:30;;;;;;;10.50;1.40;;;;;;;;;;4959349;28;20050;-66
2021/12/12 14:55:01;;;;;;;10.25;1.52;;;;;;;;;;4964710;28;20027;-68
2021/12/12 14:57:30;;;;;;;3.83;1.08;;;;;;;;;;4969415;28;20370;-68
2021/12/12 15:00:01;;;;;;;4.85;1.23;;;;;;;;;;4970843;28;20029;-68
2021/12/12 15:02:36;;;;;;;9.77;1.33;;;;;;;;;;4969729;28;20031;-66
2021/12/12 15:05:06;;;;;;;15.40;1.67;;;;;;;;;;4970854;28;20501;-70
2021/12/12 15:07:37;;;;;;;12.77;1.50;;;;;;;;;;4971223;28;20362;-70
2021/12/12 15:10:26;;;;;;;13.30;1.60;;;;;;;;;;5039182;28;20028;-68
2021/12/12 15:12:53;;;;;;;9.60;1.63;;;;;;;;;;5036500;28;20043;-68
2021/12/12 15:15:19;;;;;;;19.60;1.90;;;;;;;;;;4971912;28;20118;-68
2021/12/12 15:18:12;;;;;;;8.32;1.75;;;;;;;;;;4974452;28;20137;-65